sensor_id;sensor_type;location;lat;lon;timestamp;P1;durP1;ratioP1;P2;durP2;ratioP2
5137;SDS011;53959;53.626;11.410;2023-02-28T00:00:08;15.47;;;7.50;;
5137;SDS011;53959;53.626;11.410;2023-02-28T00:02:36;22.90;;;7.30;;
5137;SDS011;53959;53.626;11.410;2023-02-28T00:05:02;12.40;;;6.73;;
5137;SDS011;53959;53.626;11.410;2023-02-28T00:07:28;19.17;;;7.43;;
5137;SDS011;53959;53.626;11.410;2023-02-28T00:09:54;20.30;;;6.90;;
5137;SDS011;53959;53.626;11.410;2023-02-28T00:12:19;14.17;;;6.97;;
5137;SDS011;53959;53.626;11.410;2023-02-28T00:14:45;16.33;;;7.50;;
5137;SDS011;53959;53.626;11.410;2023-02-28T00:17:10;16.30;;;7.87;;
5137;SDS011;53959;53.626;11.410;2023-02-28T00:19:35;18.00;;;7.63;;
5137;SDS011;53959;53.626;11.410;2023-02-28T00:22:01;14.20;;;7.27;;
5137;SDS011;53959;53.626;11.410;2023-02-28T00:24:26;16.83;;;7.90;;
5137;SDS011;53959;53.626;11.410;2023-02-28T00:26:51;10.40;;;5.90;;
5137;SDS011;53959;53.626;11.410;2023-02-28T00:29:17;21.37;;;7.50;;
5137;SDS011;53959;53.626;11.410;2023-02-28T00:31:43;17.47;;;8.10;;
5137;SDS011;53959;53.626;11.410;2023-02-28T00:34:10;17.97;;;8.20;;
5137;SDS011;53959;53.626;11.410;2023-02-28T00:36:35;22.83;;;8.17;;
5137;SDS011;53959;53.626;11.410;2023-02-28T00:39:03;16.43;;;8.47;;
5137;SDS011;53959;53.626;11.410;2023-02-28T00:41:28;21.13;;;8.83;;
5137;SDS011;53959;53.626;11.410;2023-02-28T00:43:54;13.90;;;7.57;;
5137;SDS011;53959;53.626;11.410;2023-02-28T00:46:19;19.77;;;6.83;;
5137;SDS011;53959;53.626;11.410;2023-02-28T00:48:45;14.03;;;7.00;;
5137;SDS011;53959;53.626;11.410;2023-02-28T00:51:10;15.07;;;6.77;;
5137;SDS011;53959;53.626;11.410;2023-02-28T00:53:35;20.63;;;7.93;;
5137;SDS011;53959;53.626;11.410;2023-02-28T00:56:01;13.53;;;6.27;;
5137;SDS011;53959;53.626;11.410;2023-02-28T00:58:26;11.90;;;7.73;;
5137;SDS011;53959;53.626;11.410;2023-02-28T01:00:52;21.40;;;6.80;;
5137;SDS011;53959;53.626;11.410;2023-02-28T01:03:19;18.83;;;8.07;;
5137;SDS011;53959;53.626;11.410;2023-02-28T01:05:46;10.83;;;6.40;;
5137;SDS011;53959;53.626;11.410;2023-02-28T01:08:12;13.37;;;7.67;;
5137;SDS011;53959;53.626;11.410;2023-02-28T01:10:38;14.80;;;6.97;;
5137;SDS011;53959;53.626;11.410;2023-02-28T01:13:05;20.80;;;7.00;;
5137;SDS011;53959;53.626;11.410;2023-02-28T01:15:31;15.20;;;7.07;;
5137;SDS011;53959;53.626;11.410;2023-02-28T01:17:57;23.47;;;7.57;;
5137;SDS011;53959;53.626;11.410;2023-02-28T01:20:23;11.30;;;6.70;;
5137;SDS011;53959;53.626;11.410;2023-02-28T01:22:48;15.00;;;6.70;;
5137;SDS011;53959;53.626;11.410;2023-02-28T01:25:14;13.90;;;7.50;;
5137;SDS011;53959;53.626;11.410;2023-02-28T01:27:39;14.00;;;7.40;;
5137;SDS011;53959;53.626;11.410;2023-02-28T01:30:05;14.47;;;7.53;;
5137;SDS011;53959;53.626;11.410;2023-02-28T01:32:34;18.23;;;7.40;;
5137;SDS011;53959;53.626;11.410;2023-02-28T01:35:00;15.60;;;7.27;;
5137;SDS011;53959;53.626;11.410;2023-02-28T01:37:25;20.93;;;8.00;;
5137;SDS011;53959;53.626;11.410;2023-02-28T01:39:51;19.93;;;8.30;;
5137;SDS011;53959;53.626;11.410;2023-02-28T01:42:19;14.20;;;7.73;;
5137;SDS011;53959;53.626;11.410;2023-02-28T01:44:58;15.00;;;7.70;;
5137;SDS011;53959;53.626;11.410;2023-02-28T01:47:31;20.50;;;8.43;;
5137;SDS011;53959;53.626;11.410;2023-02-28T01:50:04;17.33;;;7.70;;
5137;SDS011;53959;53.626;11.410;2023-02-28T01:52:34;22.60;;;8.40;;
5137;SDS011;53959;53.626;11.410;2023-02-28T01:55:01;13.30;;;7.30;;
5137;SDS011;53959;53.626;11.410;2023-02-28T01:57:31;12.47;;;7.70;;
5137;SDS011;53959;53.626;11.410;2023-02-28T02:00:25;19.00;;;7.87;;
5137;SDS011;53959;53.626;11.410;2023-02-28T02:02:53;11.60;;;6.73;;
5137;SDS011;53959;53.626;11.410;2023-02-28T02:05:22;18.23;;;7.20;;
5137;SDS011;53959;53.626;11.410;2023-02-28T02:07:51;21.27;;;7.40;;
5137;SDS011;53959;53.626;11.410;2023-02-28T02:10:21;13.03;;;6.90;;
5137;SDS011;53959;53.626;11.410;2023-02-28T02:15:40;21.23;;;8.00;;
5137;SDS011;53959;53.626;11.410;2023-02-28T02:18:17;14.10;;;7.63;;
5137;SDS011;53959;53.626;11.410;2023-02-28T02:26:24;15.10;;;6.93;;
5137;SDS011;53959;53.626;11.410;2023-02-28T02:40:11;11.50;;;6.17;;
5137;SDS011;53959;53.626;11.410;2023-02-28T02:42:44;13.47;;;7.57;;
5137;SDS011;53959;53.626;11.410;2023-02-28T02:47:44;14.40;;;7.53;;
5137;SDS011;53959;53.626;11.410;2023-02-28T02:50:22;15.43;;;7.10;;
5137;SDS011;53959;53.626;11.410;2023-02-28T02:52:52;20.63;;;7.13;;
5137;SDS011;53959;53.626;11.410;2023-02-28T02:55:21;11.80;;;7.07;;
5137;SDS011;53959;53.626;11.410;2023-02-28T02:57:50;11.03;;;6.77;;
5137;SDS011;53959;53.626;11.410;2023-02-28T03:00:20;16.00;;;7.53;;
5137;SDS011;53959;53.626;11.410;2023-02-28T03:02:50;14.20;;;8.30;;
5137;SDS011;53959;53.626;11.410;2023-02-28T03:05:30;17.30;;;8.00;;
5137;SDS011;53959;53.626;11.410;2023-02-28T03:08:03;13.43;;;6.80;;
5137;SDS011;53959;53.626;11.410;2023-02-28T03:10:41;12.93;;;6.43;;
5137;SDS011;53959;53.626;11.410;2023-02-28T03:19:32;18.23;;;7.30;;
5137;SDS011;53959;53.626;11.410;2023-02-28T03:25:05;19.60;;;6.40;;
5137;SDS011;53959;53.626;11.410;2023-02-28T03:27:39;14.63;;;5.97;;
5137;SDS011;53959;53.626;11.410;2023-02-28T03:32:50;12.70;;;7.17;;
5137;SDS011;53959;53.626;11.410;2023-02-28T03:35:26;10.23;;;6.40;;
5137;SDS011;53959;53.626;11.410;2023-02-28T03:38:15;15.13;;;6.47;;
5137;SDS011;53959;53.626;11.410;2023-02-28T03:40:48;12.93;;;6.20;;
5137;SDS011;53959;53.626;11.410;2023-02-28T03:43:21;9.27;;;5.83;;
5137;SDS011;53959;53.626;11.410;2023-02-28T03:45:50;12.83;;;6.90;;
5137;SDS011;53959;53.626;11.410;2023-02-28T03:48:22;12.10;;;6.30;;
5137;SDS011;53959;53.626;11.410;2023-02-28T03:50:54;15.80;;;6.43;;
5137;SDS011;53959;53.626;11.410;2023-02-28T03:53:31;14.67;;;6.53;;
5137;SDS011;53959;53.626;11.410;2023-02-28T04:01:34;10.13;;;6.20;;
5137;SDS011;53959;53.626;11.410;2023-02-28T04:04:01;9.33;;;5.40;;
5137;SDS011;53959;53.626;11.410;2023-02-28T04:06:27;8.83;;;5.80;;
5137;SDS011;53959;53.626;11.410;2023-02-28T04:08:55;11.73;;;6.23;;
5137;SDS011;53959;53.626;11.410;2023-02-28T04:11:32;6.93;;;4.50;;
5137;SDS011;53959;53.626;11.410;2023-02-28T04:14:03;11.17;;;5.60;;
5137;SDS011;53959;53.626;11.410;2023-02-28T04:16:30;9.30;;;4.60;;
5137;SDS011;53959;53.626;11.410;2023-02-28T04:19:00;11.47;;;5.43;;
5137;SDS011;53959;53.626;11.410;2023-02-28T04:21:33;10.40;;;5.33;;
5137;SDS011;53959;53.626;11.410;2023-02-28T04:24:01;15.30;;;5.83;;
5137;SDS011;53959;53.626;11.410;2023-02-28T04:26:34;12.03;;;5.07;;
5137;SDS011;53959;53.626;11.410;2023-02-28T04:29:02;9.20;;;5.57;;
5137;SDS011;53959;53.626;11.410;2023-02-28T04:31:29;14.87;;;5.07;;
5137;SDS011;53959;53.626;11.410;2023-02-28T04:33:55;15.13;;;5.73;;
5137;SDS011;53959;53.626;11.410;2023-02-28T04:36:20;11.30;;;6.40;;
5137;SDS011;53959;53.626;11.410;2023-02-28T04:38:47;11.57;;;6.27;;
5137;SDS011;53959;53.626;11.410;2023-02-28T04:41:13;11.83;;;5.53;;
5137;SDS011;53959;53.626;11.410;2023-02-28T04:43:39;12.63;;;6.40;;
5137;SDS011;53959;53.626;11.410;2023-02-28T04:46:04;13.33;;;6.73;;
5137;SDS011;53959;53.626;11.410;2023-02-28T04:48:31;8.13;;;4.80;;
5137;SDS011;53959;53.626;11.410;2023-02-28T04:51:01;15.17;;;7.07;;
5137;SDS011;53959;53.626;11.410;2023-02-28T04:53:32;12.17;;;5.80;;
5137;SDS011;53959;53.626;11.410;2023-02-28T04:55:58;14.77;;;7.17;;
5137;SDS011;53959;53.626;11.410;2023-02-28T04:58:23;12.13;;;6.97;;
5137;SDS011;53959;53.626;11.410;2023-02-28T05:00:53;15.43;;;7.50;;
5137;SDS011;53959;53.626;11.410;2023-02-28T05:03:19;19.17;;;7.90;;
5137;SDS011;53959;53.626;11.410;2023-02-28T05:05:48;12.43;;;7.53;;
5137;SDS011;53959;53.626;11.410;2023-02-28T05:08:13;15.53;;;7.57;;
5137;SDS011;53959;53.626;11.410;2023-02-28T05:10:38;16.77;;;7.27;;
5137;SDS011;53959;53.626;11.410;2023-02-28T05:13:04;17.73;;;7.37;;
5137;SDS011;53959;53.626;11.410;2023-02-28T05:15:29;16.70;;;6.90;;
5137;SDS011;53959;53.626;11.410;2023-02-28T05:17:55;14.70;;;6.30;;
5137;SDS011;53959;53.626;11.410;2023-02-28T05:20:20;18.43;;;8.00;;
5137;SDS011;53959;53.626;11.410;2023-02-28T05:22:46;10.23;;;6.53;;
5137;SDS011;53959;53.626;11.410;2023-02-28T05:25:12;18.13;;;7.97;;
5137;SDS011;53959;53.626;11.410;2023-02-28T05:27:41;15.20;;;7.43;;
5137;SDS011;53959;53.626;11.410;2023-02-28T05:30:06;24.17;;;8.07;;
5137;SDS011;53959;53.626;11.410;2023-02-28T05:32:35;17.70;;;7.93;;
5137;SDS011;53959;53.626;11.410;2023-02-28T05:35:04;11.00;;;6.07;;
5137;SDS011;53959;53.626;11.410;2023-02-28T05:37:30;14.40;;;7.67;;
5137;SDS011;53959;53.626;11.410;2023-02-28T05:39:55;14.30;;;6.80;;
5137;SDS011;53959;53.626;11.410;2023-02-28T05:42:21;13.90;;;7.23;;
5137;SDS011;53959;53.626;11.410;2023-02-28T05:44:46;14.13;;;6.10;;
5137;SDS011;53959;53.626;11.410;2023-02-28T05:47:11;12.63;;;6.60;;
5137;SDS011;53959;53.626;11.410;2023-02-28T05:49:40;13.57;;;6.77;;
5137;SDS011;53959;53.626;11.410;2023-02-28T05:52:06;11.60;;;5.93;;
5137;SDS011;53959;53.626;11.410;2023-02-28T05:54:31;10.23;;;5.27;;
5137;SDS011;53959;53.626;11.410;2023-02-28T05:56:57;9.17;;;4.80;;
5137;SDS011;53959;53.626;11.410;2023-02-28T05:59:22;7.73;;;5.10;;
5137;SDS011;53959;53.626;11.410;2023-02-28T06:01:47;9.73;;;4.77;;
5137;SDS011;53959;53.626;11.410;2023-02-28T06:04:13;11.53;;;4.50;;
5137;SDS011;53959;53.626;11.410;2023-02-28T06:06:45;10.57;;;5.30;;
5137;SDS011;53959;53.626;11.410;2023-02-28T06:09:12;10.67;;;5.37;;
5137;SDS011;53959;53.626;11.410;2023-02-28T06:11:37;9.47;;;5.10;;
5137;SDS011;53959;53.626;11.410;2023-02-28T06:14:02;18.67;;;5.70;;
5137;SDS011;53959;53.626;11.410;2023-02-28T06:16:29;14.77;;;6.13;;
5137;SDS011;53959;53.626;11.410;2023-02-28T06:18:59;7.17;;;4.90;;
5137;SDS011;53959;53.626;11.410;2023-02-28T06:21:26;13.47;;;6.67;;
5137;SDS011;53959;53.626;11.410;2023-02-28T06:23:52;15.00;;;6.40;;
5137;SDS011;53959;53.626;11.410;2023-02-28T06:26:18;9.93;;;5.13;;
5137;SDS011;53959;53.626;11.410;2023-02-28T06:28:44;11.57;;;5.47;;
5137;SDS011;53959;53.626;11.410;2023-02-28T06:31:12;10.93;;;5.60;;
5137;SDS011;53959;53.626;11.410;2023-02-28T06:33:38;12.00;;;5.97;;
5137;SDS011;53959;53.626;11.410;2023-02-28T06:36:05;12.60;;;5.60;;
5137;SDS011;53959;53.626;11.410;2023-02-28T06:38:31;11.67;;;5.73;;
5137;SDS011;53959;53.626;11.410;2023-02-28T06:40:57;11.27;;;5.10;;
5137;SDS011;53959;53.626;11.410;2023-02-28T06:43:25;10.93;;;5.90;;
5137;SDS011;53959;53.626;11.410;2023-02-28T06:45:54;25.43;;;6.07;;
5137;SDS011;53959;53.626;11.410;2023-02-28T06:48:21;11.13;;;6.27;;
5137;SDS011;53959;53.626;11.410;2023-02-28T06:50:46;10.03;;;5.70;;
5137;SDS011;53959;53.626;11.410;2023-02-28T06:53:12;7.53;;;5.30;;
5137;SDS011;53959;53.626;11.410;2023-02-28T06:55:38;20.67;;;6.70;;
5137;SDS011;53959;53.626;11.410;2023-02-28T06:58:04;15.93;;;6.87;;
5137;SDS011;53959;53.626;11.410;2023-02-28T07:00:40;11.30;;;6.27;;
5137;SDS011;53959;53.626;11.410;2023-02-28T07:03:10;15.60;;;6.80;;
5137;SDS011;53959;53.626;11.410;2023-02-28T07:05:36;16.07;;;6.60;;
5137;SDS011;53959;53.626;11.410;2023-02-28T07:08:02;14.40;;;7.03;;
5137;SDS011;53959;53.626;11.410;2023-02-28T07:10:29;9.97;;;5.93;;
5137;SDS011;53959;53.626;11.410;2023-02-28T07:12:54;13.80;;;7.40;;
5137;SDS011;53959;53.626;11.410;2023-02-28T07:15:20;16.90;;;9.57;;
5137;SDS011;53959;53.626;11.410;2023-02-28T07:17:45;13.37;;;6.40;;
5137;SDS011;53959;53.626;11.410;2023-02-28T07:20:11;15.70;;;7.57;;
5137;SDS011;53959;53.626;11.410;2023-02-28T07:22:36;20.33;;;8.60;;
5137;SDS011;53959;53.626;11.410;2023-02-28T07:25:03;18.27;;;7.23;;
5137;SDS011;53959;53.626;11.410;2023-02-28T07:27:29;17.73;;;7.30;;
5137;SDS011;53959;53.626;11.410;2023-02-28T07:29:55;13.80;;;7.00;;
5137;SDS011;53959;53.626;11.410;2023-02-28T07:32:21;16.00;;;7.37;;
5137;SDS011;53959;53.626;11.410;2023-02-28T07:34:47;21.50;;;7.80;;
5137;SDS011;53959;53.626;11.410;2023-02-28T07:37:13;15.20;;;7.57;;
5137;SDS011;53959;53.626;11.410;2023-02-28T07:39:39;14.97;;;7.10;;
5137;SDS011;53959;53.626;11.410;2023-02-28T07:42:07;13.07;;;6.77;;
5137;SDS011;53959;53.626;11.410;2023-02-28T07:44:35;15.13;;;6.47;;
5137;SDS011;53959;53.626;11.410;2023-02-28T07:47:05;15.77;;;5.80;;
5137;SDS011;53959;53.626;11.410;2023-02-28T07:49:34;12.43;;;6.20;;
5137;SDS011;53959;53.626;11.410;2023-02-28T07:52:01;18.23;;;6.07;;
5137;SDS011;53959;53.626;11.410;2023-02-28T07:54:27;13.03;;;5.90;;
5137;SDS011;53959;53.626;11.410;2023-02-28T07:56:53;15.10;;;6.50;;
5137;SDS011;53959;53.626;11.410;2023-02-28T07:59:19;8.07;;;4.80;;
5137;SDS011;53959;53.626;11.410;2023-02-28T08:01:44;9.10;;;5.87;;
5137;SDS011;53959;53.626;11.410;2023-02-28T08:04:09;13.68;;;4.50;;
5137;SDS011;53959;53.626;11.410;2023-02-28T08:06:35;7.73;;;4.17;;
5137;SDS011;53959;53.626;11.410;2023-02-28T08:09:00;7.47;;;4.30;;
5137;SDS011;53959;53.626;11.410;2023-02-28T08:11:25;10.80;;;4.23;;
5137;SDS011;53959;53.626;11.410;2023-02-28T08:13:51;9.40;;;4.17;;
5137;SDS011;53959;53.626;11.410;2023-02-28T08:16:16;5.83;;;3.57;;
5137;SDS011;53959;53.626;11.410;2023-02-28T08:18:46;9.93;;;4.40;;
5137;SDS011;53959;53.626;11.410;2023-02-28T08:21:12;15.10;;;3.87;;
5137;SDS011;53959;53.626;11.410;2023-02-28T08:23:38;7.40;;;4.00;;
5137;SDS011;53959;53.626;11.410;2023-02-28T08:26:03;4.47;;;4.07;;
5137;SDS011;53959;53.626;11.410;2023-02-28T08:28:29;7.13;;;4.03;;
5137;SDS011;53959;53.626;11.410;2023-02-28T08:30:55;7.97;;;5.00;;
5137;SDS011;53959;53.626;11.410;2023-02-28T08:33:20;4.87;;;4.37;;
5137;SDS011;53959;53.626;11.410;2023-02-28T08:35:46;7.10;;;4.30;;
5137;SDS011;53959;53.626;11.410;2023-02-28T08:38:11;7.97;;;4.60;;
5137;SDS011;53959;53.626;11.410;2023-02-28T08:40:36;5.27;;;4.13;;
5137;SDS011;53959;53.626;11.410;2023-02-28T08:43:02;4.37;;;3.87;;
5137;SDS011;53959;53.626;11.410;2023-02-28T08:45:27;5.77;;;3.93;;
5137;SDS011;53959;53.626;11.410;2023-02-28T08:47:54;6.77;;;4.47;;
5137;SDS011;53959;53.626;11.410;2023-02-28T08:50:20;10.70;;;4.40;;
5137;SDS011;53959;53.626;11.410;2023-02-28T08:52:45;10.43;;;5.10;;
5137;SDS011;53959;53.626;11.410;2023-02-28T08:55:11;7.80;;;5.10;;
5137;SDS011;53959;53.626;11.410;2023-02-28T08:57:36;15.63;;;6.37;;
5137;SDS011;53959;53.626;11.410;2023-02-28T09:00:03;12.00;;;6.87;;
5137;SDS011;53959;53.626;11.410;2023-02-28T09:02:32;26.90;;;11.30;;
5137;SDS011;53959;53.626;11.410;2023-02-28T09:04:58;25.97;;;12.20;;
5137;SDS011;53959;53.626;11.410;2023-02-28T09:07:24;36.50;;;15.77;;
5137;SDS011;53959;53.626;11.410;2023-02-28T09:09:50;48.53;;;15.70;;
5137;SDS011;53959;53.626;11.410;2023-02-28T09:12:25;44.27;;;17.03;;
5137;SDS011;53959;53.626;11.410;2023-02-28T09:14:52;35.20;;;16.80;;
5137;SDS011;53959;53.626;11.410;2023-02-28T09:17:17;39.97;;;16.77;;
5137;SDS011;53959;53.626;11.410;2023-02-28T09:19:43;43.17;;;13.50;;
5137;SDS011;53959;53.626;11.410;2023-02-28T09:22:09;14.38;;;7.57;;
5137;SDS011;53959;53.626;11.410;2023-02-28T09:24:36;8.00;;;4.70;;
5137;SDS011;53959;53.626;11.410;2023-02-28T09:27:02;14.37;;;6.80;;
5137;SDS011;53959;53.626;11.410;2023-02-28T09:29:27;19.50;;;6.90;;
5137;SDS011;53959;53.626;11.410;2023-02-28T09:31:53;10.17;;;5.60;;
5137;SDS011;53959;53.626;11.410;2023-02-28T09:34:18;7.80;;;3.10;;
5137;SDS011;53959;53.626;11.410;2023-02-28T09:36:44;3.60;;;3.20;;
5137;SDS011;53959;53.626;11.410;2023-02-28T09:39:10;3.83;;;2.33;;
5137;SDS011;53959;53.626;11.410;2023-02-28T09:41:40;2.33;;;1.70;;
5137;SDS011;53959;53.626;11.410;2023-02-28T09:44:15;4.73;;;1.73;;
5137;SDS011;53959;53.626;11.410;2023-02-28T09:46:54;3.17;;;1.53;;
5137;SDS011;53959;53.626;11.410;2023-02-28T09:49:25;2.93;;;1.53;;
5137;SDS011;53959;53.626;11.410;2023-02-28T09:52:03;2.73;;;1.30;;
5137;SDS011;53959;53.626;11.410;2023-02-28T09:54:31;1.80;;;1.70;;
5137;SDS011;53959;53.626;11.410;2023-02-28T09:56:59;3.60;;;1.80;;
5137;SDS011;53959;53.626;11.410;2023-02-28T10:08:37;1.73;;;1.63;;
5137;SDS011;53959;53.626;11.410;2023-02-28T10:11:11;2.20;;;1.40;;
5137;SDS011;53959;53.626;11.410;2023-02-28T10:16:39;1.90;;;1.40;;
5137;SDS011;53959;53.626;11.410;2023-02-28T10:21:59;1.17;;;1.00;;
5137;SDS011;53959;53.626;11.410;2023-02-28T10:24:29;3.93;;;1.80;;
5137;SDS011;53959;53.626;11.410;2023-02-28T10:26:59;1.70;;;1.03;;
5137;SDS011;53959;53.626;11.410;2023-02-28T10:29:31;4.30;;;1.20;;
5137;SDS011;53959;53.626;11.410;2023-02-28T10:31:58;1.03;;;1.03;;
5137;SDS011;53959;53.626;11.410;2023-02-28T10:34:27;1.73;;;1.50;;
5137;SDS011;53959;53.626;11.410;2023-02-28T10:36:52;1.83;;;1.73;;
5137;SDS011;53959;53.626;11.410;2023-02-28T10:39:41;2.60;;;1.50;;
5137;SDS011;53959;53.626;11.410;2023-02-28T10:42:27;5.20;;;2.20;;
5137;SDS011;53959;53.626;11.410;2023-02-28T10:47:34;2.80;;;2.03;;
5137;SDS011;53959;53.626;11.410;2023-02-28T10:50:26;2.50;;;2.27;;
5137;SDS011;53959;53.626;11.410;2023-02-28T10:56:05;3.13;;;2.40;;
5137;SDS011;53959;53.626;11.410;2023-02-28T10:58:47;4.10;;;2.27;;
5137;SDS011;53959;53.626;11.410;2023-02-28T11:03:55;2.83;;;2.10;;
5137;SDS011;53959;53.626;11.410;2023-02-28T11:06:32;2.27;;;2.00;;
5137;SDS011;53959;53.626;11.410;2023-02-28T11:09:03;3.20;;;1.80;;
5137;SDS011;53959;53.626;11.410;2023-02-28T11:11:45;9.03;;;1.80;;
5137;SDS011;53959;53.626;11.410;2023-02-28T11:14:17;2.87;;;1.90;;
5137;SDS011;53959;53.626;11.410;2023-02-28T11:16:46;3.30;;;1.80;;
5137;SDS011;53959;53.626;11.410;2023-02-28T11:19:19;6.43;;;1.73;;
5137;SDS011;53959;53.626;11.410;2023-02-28T11:21:54;3.10;;;2.10;;
5137;SDS011;53959;53.626;11.410;2023-02-28T11:24:28;3.03;;;2.13;;
5137;SDS011;53959;53.626;11.410;2023-02-28T11:26:56;6.63;;;1.63;;
5137;SDS011;53959;53.626;11.410;2023-02-28T11:29:23;8.10;;;2.70;;
5137;SDS011;53959;53.626;11.410;2023-02-28T11:32:01;6.33;;;2.50;;
5137;SDS011;53959;53.626;11.410;2023-02-28T11:34:34;5.53;;;1.53;;
5137;SDS011;53959;53.626;11.410;2023-02-28T11:37:00;2.00;;;1.87;;
5137;SDS011;53959;53.626;11.410;2023-02-28T11:39:30;2.27;;;2.03;;
5137;SDS011;53959;53.626;11.410;2023-02-28T11:50:49;11.70;;;2.57;;
5137;SDS011;53959;53.626;11.410;2023-02-28T12:03:56;3.53;;;2.40;;
5137;SDS011;53959;53.626;11.410;2023-02-28T12:09:30;2.50;;;2.27;;
5137;SDS011;53959;53.626;11.410;2023-02-28T12:12:06;7.20;;;2.23;;
5137;SDS011;53959;53.626;11.410;2023-02-28T12:14:56;4.40;;;2.23;;
5137;SDS011;53959;53.626;11.410;2023-02-28T12:17:32;2.47;;;2.27;;
5137;SDS011;53959;53.626;11.410;2023-02-28T12:20:15;9.73;;;2.83;;
5137;SDS011;53959;53.626;11.410;2023-02-28T12:25:22;1.80;;;1.40;;
5137;SDS011;53959;53.626;11.410;2023-02-28T12:28:02;2.10;;;1.97;;
5137;SDS011;53959;53.626;11.410;2023-02-28T12:30:32;3.43;;;2.23;;
5137;SDS011;53959;53.626;11.410;2023-02-28T12:33:07;10.27;;;2.00;;
5137;SDS011;53959;53.626;11.410;2023-02-28T12:35:38;3.13;;;2.07;;
5137;SDS011;53959;53.626;11.410;2023-02-28T12:38:14;1.83;;;1.60;;
5137;SDS011;53959;53.626;11.410;2023-02-28T12:40:47;5.20;;;1.90;;
5137;SDS011;53959;53.626;11.410;2023-02-28T12:43:19;3.00;;;1.90;;
5137;SDS011;53959;53.626;11.410;2023-02-28T12:45:48;2.97;;;1.50;;
5137;SDS011;53959;53.626;11.410;2023-02-28T12:48:20;2.33;;;2.13;;
5137;SDS011;53959;53.626;11.410;2023-02-28T12:50:50;1.83;;;1.77;;
5137;SDS011;53959;53.626;11.410;2023-02-28T12:53:28;6.53;;;1.60;;
5137;SDS011;53959;53.626;11.410;2023-02-28T12:58:38;4.50;;;1.60;;
5137;SDS011;53959;53.626;11.410;2023-02-28T13:01:21;3.33;;;1.77;;
5137;SDS011;53959;53.626;11.410;2023-02-28T13:04:21;1.50;;;1.40;;
5137;SDS011;53959;53.626;11.410;2023-02-28T13:10:04;1.20;;;1.10;;
5137;SDS011;53959;53.626;11.410;2023-02-28T13:12:32;1.17;;;1.10;;
5137;SDS011;53959;53.626;11.410;2023-02-28T13:15:40;1.57;;;1.40;;
5137;SDS011;53959;53.626;11.410;2023-02-28T13:17:49;1.27;;;1.20;;
5137;SDS011;53959;53.626;11.410;2023-02-28T13:20:20;1.67;;;1.30;;
5137;SDS011;53959;53.626;11.410;2023-02-28T13:22:49;5.90;;;1.27;;
5137;SDS011;53959;53.626;11.410;2023-02-28T13:27:57;8.23;;;1.30;;
5137;SDS011;53959;53.626;11.410;2023-02-28T13:33:29;2.30;;;1.03;;
5137;SDS011;53959;53.626;11.410;2023-02-28T13:38:55;0.90;;;0.90;;
5137;SDS011;53959;53.626;11.410;2023-02-28T14:00:17;1.50;;;1.10;;
5137;SDS011;53959;53.626;11.410;2023-02-28T14:03:16;1.47;;;1.20;;
5137;SDS011;53959;53.626;11.410;2023-02-28T14:05:47;1.07;;;0.97;;
5137;SDS011;53959;53.626;11.410;2023-02-28T14:08:33;1.20;;;1.10;;
5137;SDS011;53959;53.626;11.410;2023-02-28T14:11:06;1.03;;;1.03;;
5137;SDS011;53959;53.626;11.410;2023-02-28T14:16:05;2.83;;;1.30;;
5137;SDS011;53959;53.626;11.410;2023-02-28T14:18:35;4.03;;;1.30;;
5137;SDS011;53959;53.626;11.410;2023-02-28T14:29:22;0.87;;;0.87;;
5137;SDS011;53959;53.626;11.410;2023-02-28T14:32:02;1.30;;;1.20;;
5137;SDS011;53959;53.626;11.410;2023-02-28T14:37:26;1.20;;;1.20;;
5137;SDS011;53959;53.626;11.410;2023-02-28T14:39:53;2.97;;;1.47;;
5137;SDS011;53959;53.626;11.410;2023-02-28T14:42:28;10.23;;;1.40;;
5137;SDS011;53959;53.626;11.410;2023-02-28T14:44:57;1.57;;;1.13;;
5137;SDS011;53959;53.626;11.410;2023-02-28T14:47:23;9.70;;;1.23;;
5137;SDS011;53959;53.626;11.410;2023-02-28T14:49:56;1.60;;;1.50;;
5137;SDS011;53959;53.626;11.410;2023-02-28T14:52:26;2.77;;;1.50;;
5137;SDS011;53959;53.626;11.410;2023-02-28T14:54:55;2.00;;;1.20;;
5137;SDS011;53959;53.626;11.410;2023-02-28T14:57:25;2.10;;;1.20;;
5137;SDS011;53959;53.626;11.410;2023-02-28T15:00:54;2.10;;;1.50;;
5137;SDS011;53959;53.626;11.410;2023-02-28T15:02:51;2.63;;;1.53;;
5137;SDS011;53959;53.626;11.410;2023-02-28T15:05:33;2.83;;;1.23;;
5137;SDS011;53959;53.626;11.410;2023-02-28T15:10:27;1.27;;;1.00;;
5137;SDS011;53959;53.626;11.410;2023-02-28T15:12:57;1.50;;;1.40;;
5137;SDS011;53959;53.626;11.410;2023-02-28T15:15:27;1.40;;;1.30;;
5137;SDS011;53959;53.626;11.410;2023-02-28T15:17:58;1.10;;;1.10;;
5137;SDS011;53959;53.626;11.410;2023-02-28T15:20:25;4.00;;;2.00;;
5137;SDS011;53959;53.626;11.410;2023-02-28T15:22:51;1.40;;;1.27;;
5137;SDS011;53959;53.626;11.410;2023-02-28T15:25:21;2.53;;;1.40;;
5137;SDS011;53959;53.626;11.410;2023-02-28T15:27:52;6.43;;;1.33;;
5137;SDS011;53959;53.626;11.410;2023-02-28T15:30:26;2.00;;;1.47;;
5137;SDS011;53959;53.626;11.410;2023-02-28T15:35:33;1.20;;;1.20;;
5137;SDS011;53959;53.626;11.410;2023-02-28T15:38:00;1.53;;;1.20;;
5137;SDS011;53959;53.626;11.410;2023-02-28T15:40:50;2.20;;;1.40;;
5137;SDS011;53959;53.626;11.410;2023-02-28T15:43:39;2.80;;;1.10;;
5137;SDS011;53959;53.626;11.410;2023-02-28T15:53:42;9.43;;;1.47;;
5137;SDS011;53959;53.626;11.410;2023-02-28T15:56:22;3.50;;;1.03;;
5137;SDS011;53959;53.626;11.410;2023-02-28T15:58:50;3.37;;;1.37;;
5137;SDS011;53959;53.626;11.410;2023-02-28T16:01:35;4.37;;;1.57;;
5137;SDS011;53959;53.626;11.410;2023-02-28T16:04:06;7.87;;;1.30;;
5137;SDS011;53959;53.626;11.410;2023-02-28T16:06:43;1.47;;;1.30;;
5137;SDS011;53959;53.626;11.410;2023-02-28T16:09:14;1.53;;;1.53;;
5137;SDS011;53959;53.626;11.410;2023-02-28T16:14:17;4.60;;;1.70;;
5137;SDS011;53959;53.626;11.410;2023-02-28T16:16:46;1.20;;;1.10;;
5137;SDS011;53959;53.626;11.410;2023-02-28T16:19:13;1.60;;;1.50;;
5137;SDS011;53959;53.626;11.410;2023-02-28T16:21:39;2.30;;;1.17;;
5137;SDS011;53959;53.626;11.410;2023-02-28T16:24:04;1.50;;;1.40;;
5137;SDS011;53959;53.626;11.410;2023-02-28T16:26:31;2.97;;;1.40;;
5137;SDS011;53959;53.626;11.410;2023-02-28T16:28:59;2.10;;;2.00;;
5137;SDS011;53959;53.626;11.410;2023-02-28T16:31:25;3.77;;;1.50;;
5137;SDS011;53959;53.626;11.410;2023-02-28T16:33:50;4.57;;;1.33;;
5137;SDS011;53959;53.626;11.410;2023-02-28T16:36:22;5.80;;;1.73;;
5137;SDS011;53959;53.626;11.410;2023-02-28T16:38:50;3.63;;;1.40;;
5137;SDS011;53959;53.626;11.410;2023-02-28T16:41:19;7.30;;;1.47;;
5137;SDS011;53959;53.626;11.410;2023-02-28T16:43:47;3.50;;;1.80;;
5137;SDS011;53959;53.626;11.410;2023-02-28T16:46:15;3.57;;;1.60;;
5137;SDS011;53959;53.626;11.410;2023-02-28T16:48:41;6.63;;;1.83;;
5137;SDS011;53959;53.626;11.410;2023-02-28T16:51:12;2.63;;;1.60;;
5137;SDS011;53959;53.626;11.410;2023-02-28T16:53:39;3.90;;;1.10;;
5137;SDS011;53959;53.626;11.410;2023-02-28T16:56:04;1.47;;;1.37;;
5137;SDS011;53959;53.626;11.410;2023-02-28T16:58:31;2.10;;;1.63;;
5137;SDS011;53959;53.626;11.410;2023-02-28T17:01:00;3.27;;;1.70;;
5137;SDS011;53959;53.626;11.410;2023-02-28T17:03:27;2.60;;;1.43;;
5137;SDS011;53959;53.626;11.410;2023-02-28T17:05:53;2.97;;;2.00;;
5137;SDS011;53959;53.626;11.410;2023-02-28T17:08:19;4.03;;;1.90;;
5137;SDS011;53959;53.626;11.410;2023-02-28T17:10:44;5.80;;;1.70;;
5137;SDS011;53959;53.626;11.410;2023-02-28T17:13:10;17.07;;;2.70;;
5137;SDS011;53959;53.626;11.410;2023-02-28T17:15:35;3.93;;;1.90;;
5137;SDS011;53959;53.626;11.410;2023-02-28T17:18:02;1.87;;;1.40;;
5137;SDS011;53959;53.626;11.410;2023-02-28T17:20:29;4.37;;;1.77;;
5137;SDS011;53959;53.626;11.410;2023-02-28T17:22:55;8.23;;;1.80;;